createdAt,value
2022-11-25T00:01:23.616Z,5.00
2022-11-25T00:03:51.372Z,5.00
2022-11-25T00:06:19.572Z,5.00
2022-11-25T00:08:49.606Z,5.00
2022-11-25T00:11:18.057Z,5.00
2022-11-25T00:13:45.562Z,5.00
2022-11-25T00:16:14.864Z,4.90
2022-11-25T00:18:45.939Z,4.90
2022-11-25T00:21:15.609Z,4.80
2022-11-25T00:23:42.838Z,4.90
2022-11-25T00:26:14.701Z,4.80
2022-11-25T00:28:43.316Z,4.80
2022-11-25T00:31:17.531Z,4.80
2022-11-25T00:33:45.555Z,4.80
2022-11-25T00:36:32.937Z,4.80
2022-11-25T00:39:06.427Z,4.80
2022-11-25T00:41:52.262Z,4.80
2022-11-25T00:44:36.075Z,4.80
2022-11-25T00:47:03.417Z,4.70
2022-11-25T00:49:30.239Z,4.70
2022-11-25T00:51:57.128Z,4.70
2022-11-25T00:54:24.212Z,4.60
2022-11-25T00:56:51.451Z,4.70
2022-11-25T00:59:18.682Z,4.70
2022-11-25T01:01:45.527Z,4.60
2022-11-25T01:04:12.418Z,4.60
2022-11-25T01:06:39.584Z,4.60
2022-11-25T01:09:08.016Z,4.50
2022-11-25T01:11:35.268Z,4.50
2022-11-25T01:14:02.581Z,4.50
2022-11-25T01:16:30.269Z,4.50
2022-11-25T01:18:59.168Z,4.50
2022-11-25T01:21:30.036Z,4.40
2022-11-25T01:23:58.435Z,4.40
2022-11-25T01:26:25.867Z,4.30
2022-11-25T01:29:17.289Z,4.30
2022-11-25T01:31:45.077Z,4.20
2022-11-25T01:34:15.488Z,4.30
2022-11-25T01:36:42.796Z,4.20
2022-11-25T01:39:18.270Z,4.20
2022-11-25T01:41:45.476Z,4.10
2022-11-25T01:44:14.576Z,4.10
2022-11-25T01:47:23.599Z,4.10
2022-11-25T01:49:53.763Z,4.10
2022-11-25T01:52:31.476Z,4.10
2022-11-25T01:55:05.321Z,4.10
2022-11-25T01:57:59.072Z,4.10
2022-11-25T02:00:26.251Z,4.10
2022-11-25T02:02:55.739Z,4.10
2022-11-25T02:05:33.815Z,4.10
2022-11-25T02:08:01.413Z,4.10
2022-11-25T02:10:32.167Z,4.10
2022-11-25T02:12:59.613Z,4.10
2022-11-25T02:15:28.867Z,4.10
2022-11-25T02:17:56.274Z,4.10
2022-11-25T02:20:25.185Z,4.10
2022-11-25T02:23:10.884Z,4.10
2022-11-25T02:25:40.288Z,4.10
2022-11-25T02:28:17.797Z,4.10
2022-11-25T02:30:45.982Z,4.10
2022-11-25T02:33:13.375Z,4.10
2022-11-25T02:35:43.420Z,4.20
2022-11-25T02:38:21.646Z,4.10
2022-11-25T02:40:50.356Z,4.10
2022-11-25T02:43:17.978Z,4.10
2022-11-25T02:45:50.675Z,4.10
2022-11-25T02:48:17.537Z,4.10
2022-11-25T02:50:44.852Z,4.10
2022-11-25T02:53:11.857Z,4.00
2022-11-25T02:55:38.929Z,4.00
2022-11-25T02:58:05.865Z,3.90
2022-11-25T03:00:32.835Z,3.90
2022-11-25T03:02:59.799Z,3.90
2022-11-25T03:05:26.746Z,3.90
2022-11-25T03:07:53.628Z,3.90
2022-11-25T03:10:21.869Z,3.90
2022-11-25T03:12:48.769Z,3.80
2022-11-25T03:15:16.144Z,3.90
2022-11-25T03:17:43.084Z,3.80
2022-11-25T03:20:12.671Z,3.80
2022-11-25T03:22:39.912Z,3.80
2022-11-25T03:25:07.348Z,3.80
2022-11-25T03:27:34.775Z,3.80
2022-11-25T03:30:01.746Z,3.80
2022-11-25T03:32:28.567Z,3.80
2022-11-25T03:34:55.394Z,3.80
2022-11-25T03:37:22.345Z,3.70
2022-11-25T03:39:49.212Z,3.70
2022-11-25T03:42:16.139Z,3.60
2022-11-25T03:44:42.993Z,3.50
2022-11-25T03:47:09.928Z,3.50
2022-11-25T03:49:36.857Z,3.40
2022-11-25T03:52:04.188Z,3.30
2022-11-25T03:54:31.181Z,3.20
2022-11-25T03:56:58.017Z,3.10
2022-11-25T03:59:24.953Z,3.10
2022-11-25T04:01:52.231Z,3.10
2022-11-25T04:04:19.187Z,3.10
2022-11-25T04:06:46.082Z,3.10
2022-11-25T04:09:12.952Z,3.10
2022-11-25T04:11:58.303Z,3.00
2022-11-25T04:14:25.191Z,3.00
2022-11-25T04:16:52.137Z,2.90
2022-11-25T04:19:19.001Z,3.00
2022-11-25T04:21:49.392Z,2.80
2022-11-25T04:24:19.865Z,2.80
2022-11-25T04:26:46.824Z,2.70
2022-11-25T04:29:13.713Z,2.70
2022-11-25T04:31:40.499Z,2.70
2022-11-25T04:34:07.377Z,2.60
2022-11-25T04:36:34.220Z,2.50
2022-11-25T04:39:01.030Z,2.50
2022-11-25T04:41:27.842Z,2.50
2022-11-25T04:43:54.657Z,2.40
2022-11-25T04:46:27.287Z,2.40
2022-11-25T04:48:54.175Z,2.50
2022-11-25T04:51:20.982Z,2.40
2022-11-25T04:53:47.843Z,2.30
2022-11-25T04:56:21.819Z,2.40
2022-11-25T04:59:07.547Z,2.20
2022-11-25T05:01:34.398Z,2.20
2022-11-25T05:04:01.217Z,2.10
2022-11-25T05:06:28.024Z,2.10
2022-11-25T05:08:54.963Z,2.10
2022-11-25T05:11:21.856Z,2.20
2022-11-25T05:13:48.723Z,2.30
2022-11-25T05:16:15.587Z,2.10
2022-11-25T05:18:42.422Z,2.10
2022-11-25T05:21:09.431Z,2.10
2022-11-25T05:23:36.225Z,2.10
2022-11-25T05:26:04.621Z,2.00
2022-11-25T05:28:32.189Z,2.00
2022-11-25T05:30:59.176Z,2.00
2022-11-25T05:33:26.149Z,2.00
2022-11-25T05:36:01.604Z,1.90
2022-11-25T05:38:28.825Z,1.80
2022-11-25T05:41:02.808Z,1.70
2022-11-25T05:43:29.897Z,1.70
2022-11-25T05:45:56.879Z,1.70
2022-11-25T05:48:23.962Z,1.80
2022-11-25T05:50:50.756Z,1.80
2022-11-25T05:53:17.668Z,1.80
2022-11-25T05:55:44.757Z,1.80
2022-11-25T05:58:11.568Z,1.70
2022-11-25T06:00:38.407Z,1.70
2022-11-25T06:03:05.801Z,1.70
2022-11-25T06:05:35.442Z,1.60
2022-11-25T06:08:02.232Z,1.70
2022-11-25T06:10:29.086Z,1.60
2022-11-25T06:12:55.889Z,1.70
2022-11-25T06:15:22.741Z,1.70
2022-11-25T06:17:49.579Z,1.70
2022-11-25T06:20:16.494Z,1.80
2022-11-25T06:22:43.500Z,1.60
2022-11-25T06:25:11.225Z,1.60
2022-11-25T06:28:04.563Z,1.70
2022-11-25T06:30:25.629Z,1.70
2022-11-25T06:32:54.896Z,1.80
2022-11-25T06:35:21.789Z,1.80
2022-11-25T06:37:48.609Z,1.90
2022-11-25T06:40:15.482Z,1.90
2022-11-25T06:42:43.573Z,1.90
2022-11-25T06:45:10.819Z,2.00
2022-11-25T06:47:37.635Z,2.00
2022-11-25T06:50:05.111Z,2.10
2022-11-25T06:52:32.404Z,2.00
2022-11-25T06:54:59.382Z,2.20
2022-11-25T06:57:26.229Z,2.40
2022-11-25T06:59:53.225Z,2.40
2022-11-25T07:02:20.121Z,2.70
2022-11-25T07:04:47.028Z,2.70
2022-11-25T07:07:13.902Z,2.90
2022-11-25T07:09:40.759Z,3.10
2022-11-25T07:12:07.792Z,3.30
2022-11-25T07:14:34.970Z,3.50
2022-11-25T07:17:01.968Z,3.80
2022-11-25T07:19:33.550Z,4.00
2022-11-25T07:22:00.430Z,4.20
2022-11-25T07:24:27.542Z,4.40
2022-11-25T07:26:54.329Z,4.50
2022-11-25T07:29:50.458Z,4.60
2022-11-25T07:32:10.736Z,4.70
2022-11-25T07:34:37.949Z,5.00
2022-11-25T07:37:04.800Z,5.20
2022-11-25T07:39:31.740Z,5.20
2022-11-25T07:41:58.525Z,5.50
2022-11-25T07:44:25.312Z,5.60
2022-11-25T07:46:52.323Z,5.70
2022-11-25T07:49:22.259Z,5.90
2022-11-25T07:51:53.388Z,6.00
2022-11-25T07:54:21.430Z,6.10
2022-11-25T07:56:49.824Z,6.30
2022-11-25T07:59:19.615Z,6.60
2022-11-25T08:01:46.795Z,7.00
2022-11-25T08:04:19.768Z,7.30
2022-11-25T08:06:49.363Z,7.50
2022-11-25T08:09:19.395Z,7.80
2022-11-25T08:11:47.754Z,8.20
2022-11-25T08:14:14.833Z,8.50
2022-11-25T08:16:42.049Z,8.80
2022-11-25T08:19:13.955Z,9.10
2022-11-25T08:21:41.121Z,9.10
2022-11-25T08:24:08.528Z,9.40
2022-11-25T08:26:37.761Z,9.80
2022-11-25T08:29:06.586Z,10.10
2022-11-25T08:31:36.711Z,10.20
2022-11-25T08:34:05.340Z,10.30
2022-11-25T08:36:33.737Z,10.40
2022-11-25T08:39:02.248Z,10.60
2022-11-25T08:41:31.652Z,10.40
2022-11-25T08:44:00.865Z,10.50
2022-11-25T08:46:36.521Z,10.80
2022-11-25T08:49:04.894Z,11.10
2022-11-25T08:51:33.971Z,11.50
2022-11-25T08:54:01.968Z,11.70
2022-11-25T08:56:29.081Z,11.70
2022-11-25T08:58:56.450Z,11.70
2022-11-25T09:01:25.264Z,11.70
2022-11-25T09:03:55.497Z,12.20
2022-11-25T09:06:23.450Z,12.20
2022-11-25T09:08:50.351Z,12.30
2022-11-25T09:11:17.471Z,12.40
2022-11-25T09:13:44.484Z,12.40
2022-11-25T09:16:11.533Z,12.30
2022-11-25T09:18:39.881Z,12.30
2022-11-25T09:21:12.422Z,12.40
2022-11-25T09:23:40.171Z,12.50
2022-11-25T09:26:08.229Z,12.40
2022-11-25T09:28:36.701Z,12.20
2022-11-25T09:31:08.526Z,12.20
2022-11-25T09:33:35.503Z,12.30
2022-11-25T09:36:03.285Z,12.10
2022-11-25T09:38:30.214Z,12.10
2022-11-25T09:41:16.014Z,12.30
2022-11-25T09:44:52.224Z,12.50
2022-11-25T09:48:02.248Z,12.30
2022-11-25T09:50:58.110Z,12.60
2022-11-25T09:53:54.017Z,12.70
2022-11-25T09:56:52.960Z,12.50
2022-11-25T09:59:32.588Z,12.20
2022-11-25T10:02:03.378Z,12.20
2022-11-25T10:04:46.663Z,12.30
2022-11-25T10:07:33.330Z,12.40
2022-11-25T10:10:05.874Z,12.40
2022-11-25T10:12:43.520Z,12.50
2022-11-25T10:15:23.416Z,12.50
2022-11-25T10:17:54.213Z,12.20
2022-11-25T10:20:29.440Z,12.00
2022-11-25T10:23:28.328Z,11.90
2022-11-25T10:26:09.770Z,11.70
2022-11-25T10:28:37.560Z,11.40
2022-11-25T10:31:40.010Z,11.30
2022-11-25T10:34:35.902Z,11.20
2022-11-25T10:37:11.251Z,11.10
2022-11-25T10:39:38.061Z,11.10
2022-11-25T10:42:25.879Z,11.00
2022-11-25T10:44:54.907Z,10.90
2022-11-25T10:47:36.789Z,10.90
2022-11-25T10:50:30.822Z,10.90
2022-11-25T10:53:10.385Z,10.90
2022-11-25T10:55:37.218Z,10.80
2022-11-25T10:58:30.010Z,10.80
2022-11-25T11:01:20.375Z,10.80
2022-11-25T11:03:53.190Z,10.80
2022-11-25T11:06:31.191Z,10.90
2022-11-25T11:08:58.273Z,11.00
2022-11-25T11:11:25.421Z,11.00
2022-11-25T11:14:10.479Z,10.90
2022-11-25T11:16:40.652Z,10.90
2022-11-25T11:19:22.141Z,10.80
2022-11-25T11:21:49.939Z,10.90
2022-11-25T11:24:43.160Z,10.90
2022-11-25T11:27:09.936Z,10.80
2022-11-25T11:29:37.050Z,10.70
2022-11-25T11:32:07.375Z,10.80
2022-11-25T11:34:49.304Z,10.90
2022-11-25T11:37:30.098Z,11.00
2022-11-25T11:40:21.897Z,11.00
2022-11-25T11:43:10.304Z,11.00
2022-11-25T11:45:41.758Z,11.00
2022-11-25T11:48:12.197Z,10.90
2022-11-25T11:50:46.150Z,10.90
2022-11-25T11:53:33.159Z,10.80
2022-11-25T11:56:32.961Z,10.80
2022-11-25T11:58:59.495Z,10.70
2022-11-25T12:02:03.836Z,10.70
2022-11-25T12:04:39.656Z,10.60
2022-11-25T12:07:38.462Z,10.70
2022-11-25T12:10:31.530Z,10.70
2022-11-25T12:13:23.384Z,10.80
2022-11-25T12:16:04.233Z,10.70
2022-11-25T12:18:52.013Z,10.80
2022-11-25T12:21:24.629Z,10.80
2022-11-25T12:24:17.684Z,10.80
2022-11-25T12:27:09.051Z,10.80
2022-11-25T12:29:45.612Z,10.70
2022-11-25T12:32:40.309Z,10.70
2022-11-25T12:35:10.114Z,10.60
2022-11-25T12:37:54.813Z,10.60
2022-11-25T12:40:28.116Z,10.60
2022-11-25T12:43:03.332Z,10.60
2022-11-25T12:45:30.355Z,10.50
2022-11-25T12:47:57.540Z,10.50
2022-11-25T12:50:41.751Z,10.60
2022-11-25T12:53:20.840Z,10.60
2022-11-25T12:55:47.635Z,10.70
2022-11-25T12:58:20.477Z,10.80
2022-11-25T13:00:53.248Z,10.80
2022-11-25T13:03:41.886Z,10.70
2022-11-25T13:06:32.038Z,10.60
2022-11-25T13:09:21.768Z,10.40
2022-11-25T13:12:17.251Z,10.20
2022-11-25T13:15:19.288Z,10.20
2022-11-25T13:17:49.201Z,10.20
2022-11-25T13:20:44.015Z,10.20
2022-11-25T13:23:19.571Z,10.10
2022-11-25T13:25:49.564Z,10.10
2022-11-25T13:28:37.246Z,10.10
2022-11-25T13:31:26.018Z,10.10
2022-11-25T13:34:04.632Z,10.10
2022-11-25T13:36:46.961Z,10.10
2022-11-25T13:39:17.070Z,10.10
2022-11-25T13:41:50.009Z,10.10
2022-11-25T13:44:26.795Z,10.10
2022-11-25T13:46:55.753Z,10.00
2022-11-25T13:49:38.400Z,9.90
2022-11-25T13:52:11.495Z,9.90
2022-11-25T13:54:46.867Z,9.90
2022-11-25T13:57:13.660Z,9.80
2022-11-25T13:59:43.283Z,9.80
2022-11-25T14:02:28.610Z,9.80
2022-11-25T14:05:16.874Z,9.70
2022-11-25T14:07:51.991Z,9.70
2022-11-25T14:10:45.946Z,9.60
2022-11-25T14:13:30.903Z,9.40
2022-11-25T14:16:06.502Z,9.40
2022-11-25T14:19:16.969Z,9.40
2022-11-25T14:21:32.841Z,9.20
2022-11-25T14:24:46.973Z,9.10
2022-11-25T14:27:26.105Z,8.90
2022-11-25T14:30:01.450Z,8.80
2022-11-25T14:32:40.180Z,8.80
2022-11-25T14:35:22.952Z,8.70
2022-11-25T14:38:25.506Z,8.60
2022-11-25T14:41:05.346Z,8.50
2022-11-25T14:43:40.960Z,8.40
2022-11-25T14:46:23.075Z,8.30
2022-11-25T14:48:55.300Z,8.30
2022-11-25T14:51:23.870Z,8.20
2022-11-25T14:53:51.693Z,8.10
2022-11-25T14:56:44.984Z,8.10
2022-11-25T14:59:12.643Z,8.00
2022-11-25T15:01:51.634Z,7.90
2022-11-25T15:04:24.879Z,7.80
2022-11-25T15:06:57.863Z,7.80
2022-11-25T15:09:27.121Z,7.70
2022-11-25T15:11:56.256Z,7.70
2022-11-25T15:14:36.048Z,7.60
2022-11-25T15:17:08.480Z,7.70
2022-11-25T15:19:37.129Z,7.60
2022-11-25T15:22:23.555Z,7.60
2022-11-25T15:24:55.410Z,7.50
2022-11-25T15:27:27.529Z,7.50
2022-11-25T15:29:56.142Z,7.50
2022-11-25T15:32:33.950Z,7.40
2022-11-25T15:35:02.216Z,7.40
2022-11-25T15:37:29.692Z,7.20
2022-11-25T15:40:34.167Z,7.10
2022-11-25T15:43:04.316Z,6.90
2022-11-25T15:45:46.043Z,6.80
2022-11-25T15:48:46.065Z,6.60
2022-11-25T15:51:21.746Z,6.40
2022-11-25T15:53:56.642Z,6.30
2022-11-25T15:56:26.928Z,6.20
2022-11-25T15:58:57.402Z,6.20
2022-11-25T16:01:29.291Z,6.20
2022-11-25T16:04:27.347Z,6.10
2022-11-25T16:06:56.913Z,6.10
2022-11-25T16:09:25.552Z,6.10
2022-11-25T16:11:52.560Z,6.10
2022-11-25T16:14:28.929Z,6.10
2022-11-25T16:17:01.965Z,6.00
2022-11-25T16:19:44.668Z,6.00
2022-11-25T16:22:18.152Z,6.00
2022-11-25T16:25:00.390Z,6.10
2022-11-25T16:27:29.974Z,6.20
2022-11-25T16:30:19.005Z,6.20
2022-11-25T16:32:46.193Z,6.20
2022-11-25T16:35:23.531Z,6.10
2022-11-25T16:37:50.431Z,6.10
2022-11-25T16:40:18.742Z,6.10
2022-11-25T16:42:48.912Z,6.00
2022-11-25T16:45:22.560Z,6.00
2022-11-25T16:47:49.588Z,6.00
2022-11-25T16:50:17.757Z,5.90
2022-11-25T16:52:44.967Z,5.90
2022-11-25T16:55:13.229Z,5.80
2022-11-25T16:57:42.121Z,5.70
2022-11-25T17:00:14.768Z,5.70
2022-11-25T17:02:41.661Z,5.60
2022-11-25T17:05:24.766Z,5.60
2022-11-25T17:07:52.455Z,5.60
2022-11-25T17:10:21.589Z,5.50
2022-11-25T17:12:50.108Z,5.50
2022-11-25T17:15:21.140Z,5.40
2022-11-25T17:17:48.734Z,5.30
2022-11-25T17:20:18.601Z,5.30
2022-11-25T17:22:45.760Z,5.40
2022-11-25T17:25:13.678Z,5.30
2022-11-25T17:27:41.536Z,5.30
2022-11-25T17:30:21.195Z,5.20
2022-11-25T17:32:49.934Z,5.10
2022-11-25T17:35:21.316Z,5.10
2022-11-25T17:37:48.743Z,5.10
2022-11-25T17:40:16.131Z,5.00
2022-11-25T17:42:44.643Z,5.00
2022-11-25T17:45:13.946Z,4.90
2022-11-25T17:47:41.217Z,4.80
2022-11-25T17:50:19.559Z,4.80
2022-11-25T17:52:47.145Z,4.80
2022-11-25T17:55:17.674Z,4.70
2022-11-25T17:57:44.590Z,4.70
2022-11-25T18:00:16.023Z,4.70
2022-11-25T18:02:43.180Z,4.70
2022-11-25T18:05:16.090Z,4.70
2022-11-25T18:07:44.620Z,4.60
2022-11-25T18:10:14.406Z,4.70
2022-11-25T18:12:42.937Z,4.70
2022-11-25T18:15:17.610Z,4.70
2022-11-25T18:17:45.485Z,4.60
2022-11-25T18:20:18.575Z,4.50
2022-11-25T18:22:45.960Z,4.50
2022-11-25T18:25:33.819Z,4.60
2022-11-25T18:28:02.493Z,4.60
2022-11-25T18:30:32.767Z,4.60
2022-11-25T18:33:01.574Z,4.50
2022-11-25T18:35:36.117Z,4.70
2022-11-25T18:38:04.698Z,4.50
2022-11-25T18:40:32.756Z,4.40
2022-11-25T18:43:04.931Z,4.40
2022-11-25T18:45:42.615Z,4.40
2022-11-25T18:48:19.499Z,4.40
2022-11-25T18:50:48.126Z,4.40
2022-11-25T18:53:16.019Z,4.50
2022-11-25T18:55:44.013Z,4.60
2022-11-25T18:58:20.024Z,4.60
2022-11-25T19:00:49.527Z,4.60
2022-11-25T19:03:19.409Z,4.60
2022-11-25T19:05:47.424Z,4.60
2022-11-25T19:08:14.821Z,4.70
2022-11-25T19:10:45.024Z,4.70
2022-11-25T19:13:25.402Z,4.60
2022-11-25T19:15:52.900Z,4.60
2022-11-25T19:18:27.953Z,4.60
2022-11-25T19:20:55.501Z,4.60
2022-11-25T19:23:29.796Z,4.80
2022-11-25T19:26:03.490Z,4.50
2022-11-25T19:28:31.949Z,4.40
2022-11-25T19:31:04.501Z,4.40
2022-11-25T19:33:34.792Z,4.40
2022-11-25T19:36:02.041Z,4.30
2022-11-25T19:38:30.210Z,4.30
2022-11-25T19:40:58.199Z,4.30
2022-11-25T19:46:52.678Z,4.30
2022-11-25T19:49:21.100Z,4.30
2022-11-25T19:51:49.017Z,4.30
2022-11-25T19:54:18.681Z,4.40
2022-11-25T19:56:46.005Z,4.40
2022-11-25T19:59:13.455Z,4.40
2022-11-25T20:01:45.196Z,4.30
2022-11-25T20:04:22.730Z,4.40
2022-11-25T20:06:50.743Z,4.50
2022-11-25T20:09:18.275Z,4.50
2022-11-25T20:11:46.452Z,4.60
2022-11-25T20:14:13.774Z,4.60
2022-11-25T20:16:42.270Z,4.50
2022-11-25T20:19:19.158Z,4.50
2022-11-25T20:21:47.131Z,4.60
2022-11-25T20:24:19.109Z,4.70
2022-11-25T20:26:49.395Z,4.70
2022-11-25T20:29:19.770Z,4.60
2022-11-25T20:31:47.449Z,4.50
2022-11-25T20:34:15.361Z,4.50
2022-11-25T20:36:44.787Z,4.50
2022-11-25T20:39:20.689Z,4.50
2022-11-25T20:41:50.780Z,4.70
2022-11-25T20:44:18.570Z,4.60
2022-11-25T20:46:45.933Z,4.50
2022-11-25T20:49:29.637Z,4.50
2022-11-25T20:51:57.826Z,4.50
2022-11-25T20:54:25.311Z,4.40
2022-11-25T20:56:52.474Z,4.40
2022-11-25T20:59:24.048Z,4.40
2022-11-25T21:01:51.956Z,4.50
2022-11-25T21:04:19.232Z,4.40
2022-11-25T21:06:46.673Z,4.40
2022-11-25T21:09:19.288Z,4.40
2022-11-25T21:11:47.762Z,4.40
2022-11-25T21:14:19.842Z,4.50
2022-11-25T21:16:47.575Z,4.40
2022-11-25T21:19:14.920Z,4.40
2022-11-25T21:21:47.370Z,4.40
2022-11-25T21:24:30.221Z,4.30
2022-11-25T21:26:59.952Z,4.20
2022-11-25T21:29:28.220Z,4.20
2022-11-25T21:31:57.513Z,4.10
2022-11-25T21:34:24.430Z,4.00
2022-11-25T21:36:53.267Z,4.00
2022-11-25T21:39:25.883Z,4.10
2022-11-25T21:41:53.519Z,4.00
2022-11-25T21:44:38.292Z,4.00
2022-11-25T21:47:14.381Z,4.00
2022-11-25T21:49:41.361Z,4.00
2022-11-25T21:52:08.172Z,3.90
2022-11-25T21:54:35.277Z,3.90
2022-11-25T21:57:02.382Z,3.80
2022-11-25T21:59:29.989Z,3.80
2022-11-25T22:01:56.911Z,3.70
2022-11-25T22:04:24.594Z,3.70
2022-11-25T22:06:51.608Z,3.70
2022-11-25T22:09:18.921Z,3.60
2022-11-25T22:11:48.584Z,3.60
2022-11-25T22:14:29.046Z,3.50
2022-11-25T22:16:57.117Z,3.40
2022-11-25T22:19:27.243Z,3.30
2022-11-25T22:21:54.633Z,3.20
2022-11-25T22:24:22.661Z,3.20
2022-11-25T22:26:57.198Z,3.20
2022-11-25T22:29:30.953Z,3.20
2022-11-25T22:31:57.906Z,3.20
2022-11-25T22:34:25.558Z,3.20
2022-11-25T22:36:52.712Z,3.20
2022-11-25T22:39:21.050Z,3.20
2022-11-25T22:41:58.318Z,3.20
2022-11-25T22:44:45.666Z,3.20
2022-11-25T22:47:37.662Z,3.30
2022-11-25T22:50:11.846Z,3.20
2022-11-25T22:52:38.736Z,3.20
2022-11-25T22:55:19.654Z,3.20
2022-11-25T22:57:47.237Z,3.20
2022-11-25T23:00:24.188Z,3.10
2022-11-25T23:02:52.846Z,3.00
2022-11-25T23:05:32.668Z,2.90
2022-11-25T23:08:02.270Z,3.00
2022-11-25T23:10:31.104Z,3.00
2022-11-25T23:12:57.903Z,3.10
2022-11-25T23:15:25.338Z,3.10
2022-11-25T23:17:55.602Z,3.00
2022-11-25T23:20:30.512Z,3.00
2022-11-25T23:22:58.972Z,2.90
2022-11-25T23:25:25.787Z,2.80
2022-11-25T23:27:52.689Z,2.80
2022-11-25T23:30:23.302Z,2.80
2022-11-25T23:32:52.899Z,2.80
2022-11-25T23:35:26.319Z,2.80
2022-11-25T23:37:57.310Z,2.80
2022-11-25T23:40:25.404Z,2.90
2022-11-25T23:42:53.730Z,3.10
2022-11-25T23:45:22.714Z,3.20
2022-11-25T23:47:52.263Z,3.30
2022-11-25T23:50:19.087Z,3.40
2022-11-25T23:52:46.030Z,3.40
2022-11-25T23:55:24.706Z,3.30
2022-11-25T23:57:51.664Z,3.60
